Time;durP1;ratioP1;P1;durP2;ratioP2;P2;SDS_P1;SDS_P2;PMS_P1;PMS_P2;Temp;Humidity;BMP_temperature;BMP_pressure;BME280_temperature;BME280_humidity;BME280_pressure;Samples;Min_cycle;Max_cycle;Signal;HPM_P1;HPM_P2
2023/10/21 00:01:33;;;;;;;20.40;14.00;;;;;;;8.15;100.00;98255.16;105544;1254;74214;-57
2023/10/21 00:04:02;;;;;;;20.20;14.20;;;;;;;8.15;100.00;98258.65;105506;1253;80501;-57
2023/10/21 00:06:31;;;;;;;20.60;14.00;;;;;;;8.15;100.00;98242.96;105554;1253;72113;-56
2023/10/21 00:08:59;;;;;;;21.60;13.90;;;;;;;8.15;100.00;98238.27;105479;1252;69149;-56
2023/10/21 00:11:27;;;;;;;22.90;14.30;;;;;;;8.16;100.00;98251.11;105509;1256;69187;-56
2023/10/21 00:13:57;;;;;;;19.40;13.70;;;;;;;8.17;100.00;98242.46;105452;1255;72018;-57
2023/10/21 00:16:25;;;;;;;22.30;14.90;;;;;;;8.19;100.00;98235.41;105534;1253;80562;-57
2023/10/21 00:18:53;;;;;;;21.80;14.20;;;;;;;8.18;100.00;98232.50;105462;1255;71436;-57
2023/10/21 00:21:22;;;;;;;24.10;14.10;;;;;;;8.17;100.00;98230.63;105463;1253;69170;-57
2023/10/21 00:23:50;;;;;;;20.20;13.50;;;;;;;8.17;100.00;98239.86;105472;1255;69131;-57
2023/10/21 00:26:18;;;;;;;19.10;12.90;;;;;;;8.17;100.00;98259.83;105489;1253;73966;-56
2023/10/21 00:28:51;;;;;;;22.80;14.60;;;;;;;8.19;100.00;98266.05;105521;1255;82294;-56
2023/10/21 00:31:19;;;;;;;21.90;13.90;;;;;;;8.19;100.00;98262.04;105427;1256;72799;-57
2023/10/21 00:33:48;;;;;;;20.40;13.10;;;;;;;8.19;100.00;98246.17;105477;1255;69190;-56
2023/10/21 00:36:16;;;;;;;20.90;13.60;;;;;;;8.19;100.00;98264.61;105518;1255;69301;-56
2023/10/21 00:38:44;;;;;;;21.90;13.80;;;;;;;8.21;100.00;98268.67;105520;1253;72938;-56
2023/10/21 00:41:13;;;;;;;19.70;13.50;;;;;;;8.23;100.00;98279.17;105481;1256;82628;-57
2023/10/21 00:43:42;;;;;;;20.70;14.20;;;;;;;8.25;100.00;98287.54;105463;1254;70169;-57
2023/10/21 00:46:17;;;;;;;27.00;14.30;;;;;;;8.26;100.00;98297.42;105536;1254;69534;-57
2023/10/21 00:48:46;;;;;;;22.40;14.20;;;;;;;8.26;100.00;98292.02;105586;1253;69093;-57
2023/10/21 00:51:16;;;;;;;21.20;14.70;;;;;;;8.26;100.00;98281.97;105529;1252;73243;-56
2023/10/21 00:53:44;;;;;;;20.10;13.60;;;;;;;8.27;100.00;98296.83;105510;1258;81898;-56
2023/10/21 00:56:13;;;;;;;24.90;15.40;;;;;;;8.30;100.00;98301.73;105591;1254;72750;-56
2023/10/21 00:58:41;;;;;;;21.60;13.70;;;;;;;8.31;100.00;98309.29;105506;1255;69116;-56
2023/10/21 01:01:10;;;;;;;21.50;14.70;;;;;;;8.31;100.00;98326.02;105442;1253;69182;-56
2023/10/21 01:03:40;;;;;;;22.70;14.30;;;;;;;8.30;100.00;98333.40;105539;1254;73028;-56
2023/10/21 01:06:09;;;;;;;26.40;15.10;;;;;;;8.32;100.00;98328.77;105516;1255;81450;-55
2023/10/21 01:08:45;;;;;;;22.60;14.80;;;;;;;8.33;100.00;98322.44;105497;1256;71879;-55
2023/10/21 01:11:13;;;;;;;22.60;15.00;;;;;;;8.34;100.00;98338.02;105512;1256;69116;-56
2023/10/21 01:13:43;;;;;;;21.40;14.70;;;;;;;8.34;100.00;98344.98;105519;1253;69119;-57
2023/10/21 01:16:12;;;;;;;26.10;14.90;;;;;;;8.35;100.00;98347.35;105539;1254;71439;-56
2023/10/21 01:18:41;;;;;;;24.00;15.60;;;;;;;8.35;100.00;98355.04;105527;1255;82749;-56
2023/10/21 01:21:10;;;;;;;24.50;14.80;;;;;;;8.36;100.00;98346.26;105489;1255;71892;-56
2023/10/21 01:23:39;;;;;;;23.70;14.90;;;;;;;8.36;100.00;98350.94;105520;1253;69170;-56
2023/10/21 01:26:07;;;;;;;23.00;15.30;;;;;;;8.33;100.00;98358.09;105536;1253;69107;-56
2023/10/21 01:28:36;;;;;;;22.10;14.50;;;;;;;8.33;100.00;98362.63;105522;1255;72976;-55
2023/10/21 01:31:04;;;;;;;22.60;14.40;;;;;;;8.35;100.00;98361.93;105524;1256;83291;-56
2023/10/21 01:33:32;;;;;;;22.20;14.50;;;;;;;8.37;100.00;98361.34;105458;1254;71608;-57
2023/10/21 01:36:01;;;;;;;24.40;15.20;;;;;;;8.37;100.00;98353.33;105484;1256;69561;-56
2023/10/21 01:38:29;;;;;;;21.10;14.30;;;;;;;8.35;100.00;98369.30;105557;1256;69282;-55
2023/10/21 01:40:57;;;;;;;24.10;15.00;;;;;;;8.34;100.00;98369.33;105446;1257;71629;-55
2023/10/21 01:43:27;;;;;;;25.60;15.20;;;;;;;8.35;100.00;98359.88;105529;1255;82601;-56
2023/10/21 01:45:56;;;;;;;22.90;14.70;;;;;;;8.37;100.00;98364.64;105573;1253;72109;-55
2023/10/21 01:48:24;;;;;;;23.40;15.30;;;;;;;8.38;100.00;98386.52;105491;1256;69154;-56
2023/10/21 01:51:00;;;;;;;24.20;14.20;;;;;;;8.37;100.00;98406.38;105499;1256;69094;-56
2023/10/21 01:53:28;;;;;;;24.70;15.30;;;;;;;8.38;100.00;98423.04;105538;1256;72986;-55
2023/10/21 01:56:03;;;;;;;26.80;16.30;;;;;;;8.37;100.00;98408.98;105496;1253;81319;-55
2023/10/21 01:58:31;;;;;;;21.60;13.60;;;;;;;8.35;100.00;98410.20;105436;1257;71836;-56
2023/10/21 02:01:07;;;;;;;25.00;15.30;;;;;;;8.34;100.00;98423.65;105494;1259;69149;-56
2023/10/21 02:03:35;;;;;;;20.60;13.80;;;;;;;8.33;100.00;98406.80;105495;1257;69167;-56
2023/10/21 02:06:06;;;;;;;21.10;14.70;;;;;;;8.32;100.00;98387.55;105535;1253;73923;-56
2023/10/21 02:08:34;;;;;;;21.70;14.50;;;;;;;8.33;100.00;98377.04;105522;1256;82595;-56
2023/10/21 02:11:03;;;;;;;23.30;14.10;;;;;;;8.34;100.00;98385.19;105526;1256;70206;-55
2023/10/21 02:13:31;;;;;;;21.40;14.30;;;;;;;8.34;100.00;98382.73;105495;1255;69258;-56
2023/10/21 02:15:59;;;;;;;20.50;13.50;;;;;;;8.34;100.00;98363.96;105485;1258;69183;-57
2023/10/21 02:18:27;;;;;;;19.30;13.70;;;;;;;8.35;100.00;98355.21;105482;1255;74162;-56
2023/10/21 02:20:56;;;;;;;18.50;13.50;;;;;;;8.34;100.00;98376.66;105527;1257;81408;-57
2023/10/21 02:23:24;;;;;;;21.60;14.00;;;;;;;8.33;100.00;98414.63;105492;1255;71686;-56
2023/10/21 02:26:03;;;;;;;18.30;13.20;;;;;;;8.33;100.00;98418.98;105454;1257;69214;-56
2023/10/21 02:28:31;;;;;;;18.80;13.00;;;;;;;8.35;100.00;98409.33;105531;1256;69215;-56
2023/10/21 02:31:03;;;;;;;15.90;11.80;;;;;;;8.35;100.00;98404.59;105565;1258;73260;-56
2023/10/21 02:33:31;;;;;;;18.70;12.50;;;;;;;8.35;100.00;98422.17;105468;1256;80375;-56
2023/10/21 02:36:00;;;;;;;16.90;12.40;;;;;;;8.36;100.00;98431.67;105499;1256;72908;-56
2023/10/21 02:38:29;;;;;;;16.90;12.00;;;;;;;8.38;100.00;98423.59;105570;1257;69205;-56
2023/10/21 02:40:57;;;;;;;19.30;12.70;;;;;;;8.39;100.00;98418.48;105540;1257;69209;-56
2023/10/21 02:43:25;;;;;;;18.10;12.90;;;;;;;8.37;100.00;98427.79;105548;1256;73044;-57
2023/10/21 02:45:53;;;;;;;17.80;12.60;;;;;;;8.39;100.00;98419.70;105511;1253;81573;-57
2023/10/21 02:48:23;;;;;;;16.60;12.50;;;;;;;8.41;100.00;98422.90;105539;1255;71587;-57
2023/10/21 02:50:53;;;;;;;17.80;12.80;;;;;;;8.42;100.00;98438.86;105521;1256;69100;-57
2023/10/21 02:53:21;;;;;;;19.40;12.90;;;;;;;8.42;100.00;98445.96;105526;1257;69223;-57
2023/10/21 02:55:50;;;;;;;17.10;11.80;;;;;;;8.43;100.00;98448.69;105490;1256;73869;-58
2023/10/21 02:58:18;;;;;;;17.30;12.70;;;;;;;8.44;100.00;98452.80;105519;1257;81549;-55
2023/10/21 03:00:47;;;;;;;17.80;12.50;;;;;;;8.45;100.00;98466.50;105492;1256;71866;-57
2023/10/21 03:03:16;;;;;;;19.40;13.00;;;;;;;8.44;100.00;98472.64;105545;1256;69205;-57
2023/10/21 03:05:44;;;;;;;18.00;12.50;;;;;;;8.45;100.00;98488.25;105542;1258;69181;-56
2023/10/21 03:08:12;;;;;;;16.70;12.40;;;;;;;8.46;100.00;98493.10;105438;1257;74169;-56
2023/10/21 03:10:41;;;;;;;19.00;12.50;;;;;;;8.45;100.00;98487.55;105489;1256;81458;-56
2023/10/21 03:13:09;;;;;;;17.30;12.20;;;;;;;8.45;100.00;98483.23;105476;1256;71592;-56
2023/10/21 03:15:37;;;;;;;18.90;12.20;;;;;;;8.45;100.00;98480.44;105472;1259;69094;-56
2023/10/21 03:18:05;;;;;;;18.40;13.00;;;;;;;8.44;100.00;98481.54;105537;1257;69200;-56
2023/10/21 03:20:34;;;;;;;19.80;12.40;;;;;;;8.44;100.00;98483.46;105493;1257;73017;-56
2023/10/21 03:23:03;;;;;;;19.90;12.80;;;;;;;8.44;100.00;98480.17;105493;1257;81992;-56
2023/10/21 03:25:33;;;;;;;17.70;13.00;;;;;;;8.45;100.00;98464.45;105519;1253;70362;-56
2023/10/21 03:28:01;;;;;;;19.00;12.90;;;;;;;8.45;100.00;98458.16;105478;1253;69118;-55
2023/10/21 03:30:30;;;;;;;16.50;11.70;;;;;;;8.48;100.00;98448.25;105476;1257;69209;-55
2023/10/21 03:32:58;;;;;;;18.70;12.00;;;;;;;8.51;100.00;98438.34;105529;1257;74197;-57
2023/10/21 03:35:26;;;;;;;19.40;12.60;;;;;;;8.52;100.00;98423.50;105518;1257;82634;-57
2023/10/21 03:37:54;;;;;;;16.50;12.10;;;;;;;8.48;100.00;98412.20;105511;1266;72290;-56
2023/10/21 03:40:23;;;;;;;17.60;11.60;;;;;;;8.42;100.00;98402.67;105389;1257;69125;-56
2023/10/21 03:42:51;;;;;;;17.80;12.70;;;;;;;8.40;100.00;98402.60;105527;1256;69186;-56
2023/10/21 03:45:19;;;;;;;16.60;11.30;;;;;;;8.39;100.00;98403.50;105572;1255;73232;-56
2023/10/21 03:47:48;;;;;;;15.60;11.80;;;;;;;8.38;100.00;98406.69;105527;1254;82759;-56
2023/10/21 03:50:17;;;;;;;15.90;11.70;;;;;;;8.37;100.00;98413.70;105469;1258;70890;-56
2023/10/21 03:52:45;;;;;;;17.00;12.20;;;;;;;8.36;100.00;98409.06;105494;1254;69179;-56
2023/10/21 03:55:13;;;;;;;16.80;11.90;;;;;;;8.36;100.00;98412.52;105465;1256;69160;-56
2023/10/21 03:57:42;;;;;;;16.20;11.90;;;;;;;8.36;100.00;98405.96;105533;1258;73007;-56
2023/10/21 04:00:12;;;;;;;15.00;11.30;;;;;;;8.35;100.00;98418.33;105547;1256;83252;-53
2023/10/21 04:02:40;;;;;;;18.60;11.90;;;;;;;8.35;100.00;98431.90;105494;1257;73925;-56
2023/10/21 04:05:08;;;;;;;15.10;11.50;;;;;;;8.32;100.00;98435.77;105558;1256;69209;-55
2023/10/21 04:07:37;;;;;;;15.70;11.50;;;;;;;8.30;100.00;98436.38;105495;1255;69215;-55
2023/10/21 04:10:06;;;;;;;18.60;12.10;;;;;;;8.31;100.00;98430.25;105572;1254;72828;-55
2023/10/21 04:12:34;;;;;;;14.80;10.80;;;;;;;8.33;100.00;98432.08;105546;1253;82073;-56
2023/10/21 04:15:03;;;;;;;13.90;10.70;;;;;;;8.30;100.00;98437.79;105516;1257;73117;-56
2023/10/21 04:17:31;;;;;;;15.00;11.10;;;;;;;8.27;100.00;98444.92;105545;1257;69095;-56
2023/10/21 04:20:00;;;;;;;15.20;10.70;;;;;;;8.26;100.00;98451.93;105485;1254;69164;-56
2023/10/21 04:22:28;;;;;;;18.00;12.40;;;;;;;8.26;100.00;98471.27;105532;1256;73703;-56
2023/10/21 04:24:56;;;;;;;17.90;12.10;;;;;;;8.24;100.00;98476.77;105500;1256;81696;-56
2023/10/21 04:27:26;;;;;;;17.60;12.90;;;;;;;8.22;100.00;98475.09;105505;1258;72331;-56
2023/10/21 04:29:54;;;;;;;17.10;12.10;;;;;;;8.23;100.00;98476.65;105536;1266;69134;-56
2023/10/21 04:32:22;;;;;;;17.60;12.00;;;;;;;8.23;100.00;98472.30;105543;1254;69875;-56
2023/10/21 04:34:52;;;;;;;17.60;11.30;;;;;;;8.23;100.00;98484.31;105522;1255;72854;-56
2023/10/21 04:37:20;;;;;;;15.70;11.30;;;;;;;8.19;100.00;98496.16;105508;1254;80305;-55
2023/10/21 04:39:48;;;;;;;15.80;11.70;;;;;;;8.20;100.00;98496.31;105459;1254;71912;-56
2023/10/21 04:42:16;;;;;;;16.70;11.80;;;;;;;8.22;100.00;98495.52;105481;1252;69068;-55
2023/10/21 04:44:44;;;;;;;15.60;11.70;;;;;;;8.21;100.00;98503.89;105612;1257;69199;-56
2023/10/21 04:47:12;;;;;;;14.90;11.20;;;;;;;8.19;100.00;98515.48;105496;1258;71355;-55
2023/10/21 04:49:43;;;;;;;17.50;11.80;;;;;;;8.20;100.00;98528.84;105500;1256;81220;-55
2023/10/21 04:52:11;;;;;;;;;;;;;;;8.21;100.00;98533.29;105545;1255;71994;-55
2023/10/21 04:54:41;;;;;;;16.90;11.70;;;;;;;8.22;100.00;98529.22;105553;1254;69144;-56
2023/10/21 04:57:10;;;;;;;19.50;12.90;;;;;;;8.21;100.00;98539.55;105575;1254;69071;-56
2023/10/21 04:59:38;;;;;;;15.10;11.80;;;;;;;8.21;100.00;98551.77;105588;1255;73143;-56
2023/10/21 05:02:07;;;;;;;14.50;11.20;;;;;;;8.21;100.00;98561.16;105513;1254;81681;-56
2023/10/21 05:04:36;;;;;;;14.60;11.50;;;;;;;8.21;100.00;98557.83;105578;1256;71831;-53
2023/10/21 05:07:05;;;;;;;17.60;11.80;;;;;;;8.21;100.00;98562.18;105593;1257;69072;-56
2023/10/21 05:09:33;;;;;;;15.90;11.40;;;;;;;8.21;100.00;98573.99;105599;1257;69263;-56
2023/10/21 05:12:01;;;;;;;20.40;12.40;;;;;;;8.21;100.00;98580.11;105579;1258;73079;-54
2023/10/21 05:14:31;;;;;;;16.90;12.40;;;;;;;8.21;100.00;98582.02;105544;1255;82749;-56
2023/10/21 05:16:59;;;;;;;18.60;12.30;;;;;;;8.22;100.00;98585.11;105500;1254;71952;-56
2023/10/21 05:19:28;;;;;;;21.60;13.40;;;;;;;8.19;100.00;98589.41;105504;1256;69221;-56
2023/10/21 05:21:57;;;;;;;20.30;13.10;;;;;;;8.19;100.00;98595.73;105568;1256;69144;-56
2023/10/21 05:24:25;;;;;;;20.00;12.60;;;;;;;8.16;100.00;98595.50;105617;1258;71921;-56
2023/10/21 05:26:53;;;;;;;14.30;12.00;;;;;;;8.14;100.00;98603.48;105515;1255;81714;-56
2023/10/21 05:29:21;;;;;;;22.10;12.70;;;;;;;8.12;100.00;98606.55;105525;1257;71437;-56
2023/10/21 05:31:50;;;;;;;20.10;11.60;;;;;;;8.09;100.00;98612.44;105508;1254;69066;-56
2023/10/21 05:34:18;;;;;;;20.40;10.80;;;;;;;8.07;100.00;98620.90;105535;1254;69192;-56
2023/10/21 05:36:47;;;;;;;21.30;11.70;;;;;;;8.03;100.00;98627.20;105632;1256;72783;-56
2023/10/21 05:39:15;;;;;;;13.80;11.50;;;;;;;8.02;100.00;98633.36;105499;1257;81850;-56
2023/10/21 05:41:43;;;;;;;16.70;11.10;;;;;;;8.00;100.00;98638.50;105523;1254;72755;-55
2023/10/21 05:44:11;;;;;;;14.20;10.20;;;;;;;8.00;100.00;98639.38;105522;1254;69196;-56
2023/10/21 05:46:40;;;;;;;14.90;10.90;;;;;;;8.00;100.00;98648.75;105604;1266;69794;-55
2023/10/21 05:49:08;;;;;;;18.50;11.50;;;;;;;7.99;100.00;98651.27;105533;1256;74227;-56
2023/10/21 05:51:36;;;;;;;15.90;11.10;;;;;;;7.98;100.00;98655.52;105533;1257;81438;-56
2023/10/21 05:54:05;;;;;;;15.20;10.90;;;;;;;7.96;100.00;98653.34;105538;1257;72033;-56
2023/10/21 05:56:33;;;;;;;17.70;10.50;;;;;;;7.97;100.00;98660.40;105509;1256;69109;-56
2023/10/21 05:59:04;;;;;;;18.50;11.40;;;;;;;7.96;100.00;98664.96;105528;1257;69103;-56
2023/10/21 06:01:32;;;;;;;13.20;10.90;;;;;;;7.95;100.00;98663.64;105607;1254;72976;-56
2023/10/21 06:04:00;;;;;;;17.00;11.00;;;;;;;7.97;100.00;98657.64;105497;1256;80446;-56
2023/10/21 06:06:28;;;;;;;16.80;11.40;;;;;;;8.00;100.00;98658.02;105617;1252;71389;-56
2023/10/21 06:08:57;;;;;;;15.00;11.60;;;;;;;8.03;100.00;98663.04;105533;1257;69163;-56
2023/10/21 06:11:26;;;;;;;14.80;10.80;;;;;;;8.03;100.00;98660.58;105557;1255;69173;-55
2023/10/21 06:13:54;;;;;;;18.00;11.10;;;;;;;8.04;100.00;98650.30;105543;1254;72836;-56
2023/10/21 06:16:22;;;;;;;20.00;11.20;;;;;;;8.03;100.00;98648.91;105504;1254;81258;-56
2023/10/21 06:18:50;;;;;;;14.30;11.00;;;;;;;8.03;100.00;98653.84;105478;1253;70861;-56
2023/10/21 06:21:18;;;;;;;12.10;9.60;;;;;;;8.05;100.00;98659.82;105523;1258;69181;-56
2023/10/21 06:23:47;;;;;;;17.20;10.60;;;;;;;8.08;100.00;98665.24;105581;1254;69150;-56
2023/10/21 06:26:15;;;;;;;12.60;9.60;;;;;;;8.08;100.00;98669.02;105573;1256;74008;-56
2023/10/21 06:28:43;;;;;;;14.50;9.80;;;;;;;8.09;100.00;98673.20;105519;1257;82753;-57
2023/10/21 06:31:11;;;;;;;11.90;10.10;;;;;;;8.09;100.00;98674.37;105517;1255;71954;-56
2023/10/21 06:33:39;;;;;;;12.10;9.50;;;;;;;8.10;100.00;98673.25;105509;1256;69142;-56
2023/10/21 06:36:08;;;;;;;13.00;9.40;;;;;;;8.11;100.00;98670.42;105525;1254;69112;-56
2023/10/21 06:38:36;;;;;;;12.10;9.10;;;;;;;8.12;100.00;98671.45;105634;1252;74358;-55
2023/10/21 06:41:05;;;;;;;10.80;9.00;;;;;;;8.12;100.00;98685.52;105574;1254;81684;-56
2023/10/21 06:43:42;;;;;;;12.40;8.90;;;;;;;8.15;100.00;98703.97;105561;1254;72073;-56
2023/10/21 06:46:10;;;;;;;12.60;9.50;;;;;;;8.18;100.00;98706.42;105598;1254;69112;-56
2023/10/21 06:48:38;;;;;;;13.10;9.20;;;;;;;8.23;100.00;98704.40;105575;1258;69182;-56
2023/10/21 06:51:07;;;;;;;12.00;10.20;;;;;;;8.30;100.00;98703.16;105557;1252;72878;-55
2023/10/21 06:53:35;;;;;;;14.70;9.40;;;;;;;8.36;100.00;98709.44;105532;1257;81789;-57
2023/10/21 06:56:09;;;;;;;13.50;9.10;;;;;;;8.38;100.00;98716.30;105567;1254;70986;-55
2023/10/21 06:58:39;;;;;;;12.60;9.80;;;;;;;8.39;100.00;98719.91;105542;1256;69094;-56
2023/10/21 07:01:08;;;;;;;11.40;9.30;;;;;;;8.44;100.00;98724.17;105582;1256;69196;-56
2023/10/21 07:03:36;;;;;;;12.00;8.90;;;;;;;8.46;100.00;98737.09;105602;1254;73113;-56
2023/10/21 07:06:05;;;;;;;10.70;8.70;;;;;;;8.49;100.00;98739.25;105607;1256;81415;-56
2023/10/21 07:08:34;;;;;;;9.60;8.60;;;;;;;8.50;100.00;98742.46;105595;1257;72806;-56
2023/10/21 07:11:03;;;;;;;12.40;9.20;;;;;;;8.53;100.00;98748.74;105606;1256;69240;-55
2023/10/21 07:13:31;;;;;;;11.50;9.00;;;;;;;8.58;100.00;98754.41;105608;1257;69424;-56
2023/10/21 07:16:06;;;;;;;11.30;8.80;;;;;;;8.60;100.00;98760.04;105546;1254;73264;-56
2023/10/21 07:18:35;;;;;;;9.80;8.60;;;;;;;8.63;100.00;98764.01;105564;1254;81113;-56
2023/10/21 07:21:04;;;;;;;10.80;8.40;;;;;;;8.69;100.00;98771.35;105522;1257;71468;-56
2023/10/21 07:23:32;;;;;;;11.20;8.80;;;;;;;8.75;100.00;98772.60;105586;1253;69166;-56
2023/10/21 07:26:02;;;;;;;10.90;8.70;;;;;;;8.79;100.00;98777.42;105637;1256;69120;-56
2023/10/21 07:28:33;;;;;;;12.30;9.70;;;;;;;8.82;100.00;98786.88;105606;1257;71801;-56
2023/10/21 07:31:02;;;;;;;10.30;9.30;;;;;;;8.84;100.00;98788.30;105559;1254;81564;-55
2023/10/21 07:33:30;;;;;;;11.10;9.10;;;;;;;8.86;100.00;98791.85;105567;1257;72288;-56
2023/10/21 07:35:58;;;;;;;11.20;9.70;;;;;;;8.88;100.00;98800.79;105568;1254;69154;-56
2023/10/21 07:38:27;;;;;;;10.10;8.80;;;;;;;8.89;100.00;98795.70;105560;1257;69203;-56
2023/10/21 07:40:56;;;;;;;12.20;9.80;;;;;;;8.92;100.00;98800.55;105576;1255;72168;-57
2023/10/21 07:43:24;;;;;;;12.10;9.40;;;;;;;8.97;100.00;98805.35;105587;1257;81657;-56
2023/10/21 07:45:52;;;;;;;14.60;10.10;;;;;;;9.00;100.00;98806.05;105544;1254;70517;-55
2023/10/21 07:48:20;;;;;;;12.20;10.40;;;;;;;9.06;100.00;98815.14;105608;1257;69122;-55
2023/10/21 07:50:53;;;;;;;12.10;10.80;;;;;;;9.11;100.00;98815.71;105633;1257;69240;-56
2023/10/21 07:53:21;;;;;;;13.30;10.10;;;;;;;9.16;100.00;98822.92;105576;1253;74175;-56
2023/10/21 07:55:50;;;;;;;15.30;11.10;;;;;;;9.24;100.00;98826.83;105543;1256;81938;-56
2023/10/21 07:58:18;;;;;;;12.30;10.90;;;;;;;9.31;100.00;98832.00;105615;1255;71786;-56
2023/10/21 08:00:46;;;;;;;13.30;10.70;;;;;;;9.37;100.00;98831.85;105560;1254;69131;-56
2023/10/21 08:03:15;;;;;;;13.30;10.60;;;;;;;9.42;100.00;98837.52;105565;1256;69408;-56
2023/10/21 08:05:44;;;;;;;16.30;11.40;;;;;;;9.50;100.00;98839.32;105564;1254;72923;-56
2023/10/21 08:08:13;;;;;;;14.80;11.80;;;;;;;9.54;100.00;98853.17;105527;1256;82700;-54
2023/10/21 08:10:41;;;;;;;16.00;13.80;;;;;;;9.58;100.00;98860.61;105563;1253;72087;-56
2023/10/21 08:13:09;;;;;;;18.50;14.30;;;;;;;9.66;100.00;98861.41;105545;1257;69223;-56
2023/10/21 08:15:38;;;;;;;20.60;13.40;;;;;;;9.71;100.00;98865.66;105616;1255;69148;-56
2023/10/21 08:18:07;;;;;;;15.40;13.10;;;;;;;9.72;100.00;98865.60;105643;1254;72951;-56
2023/10/21 08:20:37;;;;;;;17.10;14.10;;;;;;;9.77;100.00;98871.55;105568;1255;82031;-54
2023/10/21 08:23:07;;;;;;;21.20;16.90;;;;;;;9.82;100.00;98877.04;105574;1254;73067;-56
2023/10/21 08:25:36;;;;;;;;;;;;;;;9.85;100.00;98882.42;105552;1254;69122;-57
2023/10/21 08:28:05;;;;;;;18.00;14.80;;;;;;;9.90;100.00;98887.39;105644;1254;69154;-59
2023/10/21 08:30:33;;;;;;;16.50;13.60;;;;;;;9.92;100.00;98894.08;105604;1254;72892;-59
2023/10/21 08:33:02;;;;;;;16.40;13.50;;;;;;;9.95;100.00;98895.98;105612;1256;83362;-51
2023/10/21 08:35:32;;;;;;;22.30;17.50;;;;;;;10.00;100.00;98897.29;105529;1256;71897;-54
2023/10/21 08:38:00;;;;;;;16.50;13.70;;;;;;;10.04;100.00;98897.70;105642;1256;69304;-55
2023/10/21 08:40:28;;;;;;;18.10;14.80;;;;;;;10.15;100.00;98898.30;105616;1255;69215;-56
2023/10/21 08:43:00;;;;;;;19.60;15.50;;;;;;;10.26;100.00;98904.14;105628;1255;72791;-53
2023/10/21 08:45:31;;;;;;;25.20;18.90;;;;;;;10.33;100.00;98909.70;105671;1256;80790;-55
2023/10/21 08:47:59;;;;;;;19.80;15.70;;;;;;;10.37;100.00;98912.20;105593;1253;71618;-55
2023/10/21 08:50:29;;;;;;;23.70;16.20;;;;;;;10.45;100.00;98908.41;105582;1252;69199;-52
2023/10/21 08:52:57;;;;;;;20.30;16.00;;;;;;;10.59;100.00;98909.14;105484;1257;69143;-53
2023/10/21 08:55:25;;;;;;;28.90;22.30;;;;;;;10.67;100.00;98919.48;105563;1258;72348;-56
2023/10/21 08:57:54;;;;;;;40.80;28.30;;;;;;;10.78;100.00;98928.45;105592;1256;82618;-55
2023/10/21 09:00:23;;;;;;;30.00;22.20;;;;;;;10.87;100.00;98929.94;105695;1253;73212;-55
2023/10/21 09:02:51;;;;;;;33.40;24.30;;;;;;;11.00;100.00;98929.35;105839;1257;69883;-50
2023/10/21 09:05:19;;;;;;;25.10;20.80;;;;;;;11.12;100.00;98929.46;105416;1255;308110;-53
2023/10/21 09:07:49;;;;;;;21.20;16.70;;;;;;;11.23;100.00;98927.88;105665;1253;74833;-53
2023/10/21 09:10:18;;;;;;;19.50;16.00;;;;;;;11.36;100.00;98924.30;105784;1256;82568;-55
2023/10/21 09:12:47;;;;;;;18.90;15.60;;;;;;;11.45;100.00;98927.05;105812;1254;73024;-55
2023/10/21 09:15:15;;;;;;;18.60;15.60;;;;;;;11.52;100.00;98926.38;105721;1252;69161;-53
2023/10/21 09:17:52;;;;;;;18.30;15.50;;;;;;;11.59;100.00;98931.38;105578;1256;69162;-51
2023/10/21 09:20:22;;;;;;;20.30;16.00;;;;;;;11.64;100.00;98932.42;105593;1256;73237;-50
2023/10/21 09:22:51;;;;;;;22.20;17.60;;;;;;;11.73;100.00;98935.04;105583;1257;81505;-53
2023/10/21 09:25:21;;;;;;;19.90;16.70;;;;;;;11.80;100.00;98939.23;105607;1256;70543;-51
2023/10/21 09:27:53;;;;;;;22.40;17.20;;;;;;;11.87;100.00;98947.05;105692;1256;69061;-56
2023/10/21 09:30:24;;;;;;;20.90;17.60;;;;;;;11.96;100.00;98941.79;105690;1255;69160;-55
2023/10/21 09:33:07;;;;;;;19.30;16.70;;;;;;;12.01;100.00;98941.63;105786;1253;73016;-54
2023/10/21 09:35:36;;;;;;;24.70;17.60;;;;;;;12.10;100.00;98946.48;105691;1257;81352;-56
2023/10/21 09:38:16;;;;;;;;;;;;;;;12.16;100.00;98951.27;105632;1256;72327;-53
2023/10/21 09:40:45;;;;;;;21.30;18.40;;;;;;;12.25;100.00;98950.54;105699;1255;69079;-55
2023/10/21 09:43:14;;;;;;;21.80;18.60;;;;;;;12.38;100.00;98948.95;105600;1253;69119;-55
2023/10/21 09:45:44;;;;;;;21.00;18.70;;;;;;;12.51;100.00;98954.03;105655;1256;74864;-54
2023/10/21 09:48:12;;;;;;;;;;;;;;;12.67;100.00;98958.39;105530;1256;81211;-49
2023/10/21 09:50:52;;;;;;;21.40;17.50;;;;;;;12.87;100.00;98960.10;105619;1254;71817;-52
2023/10/21 09:53:24;;;;;;;20.20;17.10;;;;;;;13.10;100.00;98960.64;105484;1253;69052;-53
2023/10/21 09:55:53;;;;;;;23.20;18.20;;;;;;;13.27;100.00;98957.73;105526;1257;69065;-49
2023/10/21 09:58:22;;;;;;;19.80;17.40;;;;;;;13.39;100.00;98959.84;105695;1255;74029;-52
2023/10/21 10:00:50;;;;;;;21.40;17.60;;;;;;;13.59;100.00;98960.69;105629;1252;82590;-53
2023/10/21 10:03:19;;;;;;;22.10;18.70;;;;;;;13.80;100.00;98963.93;105425;1257;71865;-53
2023/10/21 10:05:49;;;;;;;19.60;17.60;;;;;;;14.09;100.00;98967.00;105673;1253;69069;-52
2023/10/21 10:08:17;;;;;;;18.80;16.90;;;;;;;14.48;100.00;98962.21;105857;1256;69811;-55
2023/10/21 10:10:47;;;;;;;20.40;18.00;;;;;;;14.82;100.00;98966.80;105588;1253;74498;-55
2023/10/21 10:13:16;;;;;;;19.40;17.30;;;;;;;14.93;100.00;98971.00;105406;1257;81894;-57
2023/10/21 10:15:44;;;;;;;20.90;17.20;;;;;;;15.07;100.00;98961.70;105632;1254;71656;-56
2023/10/21 10:18:19;;;;;;;18.00;16.20;;;;;;;15.33;100.00;98962.83;105551;1256;69167;-58
2023/10/21 10:20:50;;;;;;;18.50;16.50;;;;;;;15.63;100.00;98967.13;105595;1254;69116;-58
2023/10/21 10:23:20;;;;;;;19.30;16.00;;;;;;;15.88;100.00;98966.84;105574;1254;74182;-58
2023/10/21 10:25:52;;;;;;;20.30;16.40;;;;;;;16.11;100.00;98974.79;105645;1252;82881;-58
2023/10/21 10:28:22;;;;;;;18.70;16.20;;;;;;;16.35;100.00;98972.66;105527;1253;72140;-57
2023/10/21 10:30:51;;;;;;;18.00;16.10;;;;;;;16.68;100.00;98972.90;105396;1257;69207;-57
2023/10/21 10:33:24;;;;;;;19.10;17.00;;;;;;;16.96;100.00;98975.42;105618;1256;69193;-57
2023/10/21 10:35:54;;;;;;;37.80;17.50;;;;;;;17.26;100.00;98973.36;105608;1253;74231;-57
2023/10/21 10:38:27;;;;;;;;;;;;;;;17.49;100.00;98975.02;105591;1253;81573;-58
2023/10/21 10:41:02;;;;;;;20.00;18.00;;;;;;;17.63;100.00;98968.89;105570;1256;72992;-58
2023/10/21 10:43:31;;;;;;;34.40;20.50;;;;;;;17.82;100.00;98967.58;105564;1256;69118;-58
2023/10/21 10:46:00;;;;;;;18.60;16.60;;;;;;;17.96;100.00;98975.85;105611;1253;69228;-57
2023/10/21 10:48:29;;;;;;;21.20;16.50;;;;;;;18.22;100.00;98976.16;105593;1254;72875;-58
2023/10/21 10:51:00;;;;;;;18.10;16.20;;;;;;;18.59;100.00;98980.38;105568;1256;82753;-57
2023/10/21 10:53:29;;;;;;;16.60;14.50;;;;;;;18.78;100.00;98983.00;105582;1255;71723;-57
2023/10/21 10:55:57;;;;;;;14.10;12.60;;;;;;;18.95;100.00;98991.48;105559;1254;69067;-57
2023/10/21 10:58:28;;;;;;;17.40;12.80;;;;;;;19.16;100.00;98996.75;105537;1255;69154;-58
2023/10/21 11:00:56;;;;;;;14.80;13.40;;;;;;;19.41;100.00;99000.59;105568;1253;71601;-57
2023/10/21 11:03:31;;;;;;;14.30;12.70;;;;;;;19.63;100.00;98998.70;105579;1255;81445;-57
2023/10/21 11:05:59;;;;;;;71.70;31.70;;;;;;;19.87;100.00;99002.34;105546;1255;72342;-58
2023/10/21 11:08:29;;;;;;;15.60;13.00;;;;;;;19.96;100.00;99006.26;105496;1253;69203;-58
2023/10/21 11:11:02;;;;;;;13.60;11.70;;;;;;;20.18;100.00;99002.80;105617;1256;69081;-58
2023/10/21 11:13:32;;;;;;;13.70;12.20;;;;;;;20.55;100.00;99002.04;105591;1253;73584;-58
2023/10/21 11:16:00;;;;;;;;;;;;;;;20.78;99.82;99006.41;105619;1256;80968;-58
2023/10/21 11:18:30;;;;;;;13.50;11.90;;;;;;;20.82;98.93;99008.94;105596;1255;73162;-58